Windber, PA (15963)

5:13 AM EST on February 14, 2016 (GMT -0500)
Ashtola | | Change Station
CLOSE
Current Station
Personal Weather Station
Location: Windber, PA
Elevation: 2085 ft
Nearby Weather Stations
Active Advisory: Wind Chill Advisory Active Notice: Local Storm Report

Elev 2085 ft 40.20 °N, 78.80 °W | Updated 4 seconds ago

Partly Cloudy
Partly Cloudy
-0.4 °F
Feels Like 0 °F
N
2.0
Wind Variable Wind from NW
Gusts 4.0 mph

Today
High -- | Low -- °F
--% Chance of Precip.
Yesterday
High -- | Low -- °F
Precip. -- in
Pressure 30.43 in
Visibility 10.0 miles
Clouds Few 1700 ft
Windchill 0 °F
Dew Point -4 °F
Humidity 83%
Rainfall 0.00 in
Snow Depth Not available.
7:10 AM 5:49 PM
Waxing Crescent, 40% visible
METAR KJST 140954Z AUTO 28008KT 10SM FEW017 M17/M22 A3025 RMK AO2 SLP304 T11721217 $
Pressure 30.43 in
Visibility 10.0 miles
Clouds Few 1700 ft
Windchill 0 °F
Dew Point -4 °F
Humidity 83%
Rainfall 0.00 in
Snow Depth Not available.
7:10 AM 5:49 PM
Waxing Crescent, 40% visible
METAR KJST 140954Z AUTO 28008KT 10SM FEW017 M17/M22 A3025 RMK AO2 SLP304 T11721217 $

10-Day Weather Forecast

Almanac

Astronomy

Feb. 14, 2016 Rise Set
Actual Time
Civil Twilight
Nautical Twilight
Astronomical Twilight
Moon
Length of Visible Light
Length of Day
Tomorrow will be .
, % of the Moon is Illuminated

Today's Extremes

State Highs State Lows

Community

WunderPhotos

Upload Photos

1,892,765 photos uploaded!

WunderBlog® & News

Nearby

Air Quality

  Air Quality AQ Index Pollutant
Not available.

Snow Depth

Station Depth Elevation

Earthquake Activity

City Distance Mag. Time & Date
Minimum magnitude displayed is 2.5.

Coastal Water Temperatures

Place Temperature

Stations

Nearby Weather Stations

Station Location Temp. Windchill Dew Point Humidity Wind Precip. Elev Updated Type
                   

Watches & Warnings

Wind Chill Advisory
Issued: 4:55 AM EST Feb. 14, 2016 – National Weather Service

... Wind Chill Advisory remains in effect until 11 am EST this
morning...

* locations... most of central and southern Pennsylvania.

* Hazard types... dangerously cold wind chills.

* Timing... through late morning.

* Wind chills... 10 to 15 below zero.

* Impacts... frostbite to exposed skin in just 15 to 30 minutes.
Hypothermia possible.


Precautionary/preparedness actions...

If you will be outdoors... dress in layers and wear a hat and
gloves. Young children... the elderly and the homeless are
especially vulnerable to the cold. Appropriate action should be
taken to ensure pets have adequate protection from the cold
temperatures.